Apolinario Saravia, Argentina
Current Conditions -  °F | °C
As of 2:00 AM on Tuesday 23 Dec 2014 (Local Time) from SASJ Reporting Station
Overcast Overcast  
Wind Chill: 57°   Ceiling: 10000
Heat Index: 57°   Visibility: 6mi
Dew Point: 55°   Wind: 7mph
Humidity: 94%   Direction: 320°NW
Pressure: 30.3"   Gusts: NA
Location:  24.56°S, 64.14°W
Report Text: SASJ 230500Z 32006KT 9999 SCT020 OVC10014/13 Q1026
Loading
Personal Weather Stations






























Interactive Weather Map New forecast layout! Learn more

10-Day Weather Forecast

Advertisements
Track Severe Weather on mobile